Time;durP1;ratioP1;P1;durP2;ratioP2;P2;SDS_P1;SDS_P2;PMS_P1;PMS_P2;Temp;Humidity;BMP_temperature;BMP_pressure;BME280_temperature;BME280_humidity;BME280_pressure;Samples;Min_cycle;Max_cycle;Signal;HPM_P1;HPM_P2
2024/01/24 00:00:07;;;;;;;;;81.00;64.50;;;;;3.50;57.09;100834.00;4844291;29;8889;-79
2024/01/24 00:03:00;;;;;;;;;82.50;64.75;;;;;3.48;56.45;100832.22;4842243;29;8896;-79
2024/01/24 00:05:30;;;;;;;;;85.75;66.25;;;;;3.48;56.96;100837.41;4824202;29;8896;-78
2024/01/24 00:07:59;;;;;;;;;86.75;68.75;;;;;3.44;56.39;100833.84;4803271;29;8893;-80
2024/01/24 00:10:28;;;;;;;;;79.00;61.00;;;;;3.45;56.73;100832.09;4830322;29;8869;-78
2024/01/24 00:12:57;;;;;;;;;87.75;68.00;;;;;3.43;56.72;100832.09;4840381;29;8877;-80
2024/01/24 00:15:26;;;;;;;;;82.00;62.50;;;;;3.33;56.86;100832.59;4802883;29;8913;-79
2024/01/24 00:17:55;;;;;;;;;84.25;64.75;;;;;3.30;57.03;100835.09;4803808;29;8885;-79
2024/01/24 00:20:24;;;;;;;;;83.75;66.50;;;;;3.22;56.90;100834.88;4789394;29;9027;-80
2024/01/24 00:22:54;;;;;;;;;83.00;65.50;;;;;3.22;57.82;100831.41;4783876;29;8933;-78
2024/01/24 00:25:24;;;;;;;;;82.00;65.25;;;;;3.19;57.24;100833.09;4783700;29;8885;-80
2024/01/24 00:27:53;;;;;;;;;73.25;60.00;;;;;3.18;57.66;100836.53;4787314;29;8888;-77
2024/01/24 00:30:22;;;;;;;;;87.75;67.75;;;;;3.11;57.57;100838.88;4819853;29;8903;-77
2024/01/24 00:32:51;;;;;;;;;83.75;65.00;;;;;3.03;58.09;100846.44;4804263;29;9882;-78
2024/01/24 00:35:20;;;;;;;;;85.00;64.75;;;;;3.07;57.59;100829.22;4816680;29;8895;-80
2024/01/24 00:37:49;;;;;;;;;84.00;65.25;;;;;3.13;57.63;100832.91;4820964;29;8911;-77
2024/01/24 00:40:19;;;;;;;;;81.50;65.25;;;;;3.09;57.69;100835.34;4824806;29;8994;-77
2024/01/24 00:42:48;;;;;;;;;76.00;62.25;;;;;3.09;58.08;100828.47;4832095;29;8962;-76
2024/01/24 00:45:17;;;;;;;;;82.75;63.75;;;;;3.11;57.68;100828.47;4816141;29;8982;-78
2024/01/24 00:47:48;;;;;;;;;83.75;67.75;;;;;3.09;57.18;100832.75;4850026;29;8887;-80
2024/01/24 00:50:17;;;;;;;;;83.75;66.50;;;;;3.09;57.63;100828.47;4814097;29;8918;-76
2024/01/24 00:52:51;;;;;;;;;85.50;66.25;;;;;3.03;57.57;100822.19;4839868;29;8906;-76
2024/01/24 00:55:21;;;;;;;;;79.25;62.75;;;;;3.06;58.04;100830.97;4809121;29;8899;-78
2024/01/24 00:57:50;;;;;;;;;80.50;65.75;;;;;3.04;57.73;100826.56;4843596;29;8903;-78
2024/01/24 01:00:20;;;;;;;;;80.75;63.25;;;;;3.00;57.51;100831.66;4861901;29;8877;-81
2024/01/24 01:02:49;;;;;;;;;76.00;61.25;;;;;3.05;57.68;100830.91;4855494;29;8867;-79
2024/01/24 01:05:18;;;;;;;;;80.25;64.00;;;;;3.01;57.87;100824.72;4841592;29;8998;-79
2024/01/24 01:07:47;;;;;;;;;77.75;63.25;;;;;3.00;57.71;100817.78;4853452;29;8880;-78
2024/01/24 01:10:16;;;;;;;;;82.50;64.50;;;;;2.92;57.54;100814.97;4824303;29;8903;-81
2024/01/24 01:12:46;;;;;;;;;72.00;60.00;;;;;2.97;57.95;100812.50;4839993;29;8899;-77
2024/01/24 01:15:15;;;;;;;;;77.75;62.25;;;;;2.94;57.46;100802.00;4845319;29;8885;-79
2024/01/24 01:17:44;;;;;;;;;78.50;63.00;;;;;2.94;57.59;100805.50;4843865;29;8859;-80
2024/01/24 01:20:14;;;;;;;;;82.50;63.75;;;;;2.88;57.66;100809.59;4854644;29;8886;-78
2024/01/24 01:22:44;;;;;;;;;76.75;62.50;;;;;2.89;57.26;100806.19;4853515;29;8872;-78
2024/01/24 01:25:12;;;;;;;;;74.00;60.25;;;;;2.98;57.47;100796.97;4842645;29;8900;-77
2024/01/24 01:27:41;;;;;;;;;78.00;62.00;;;;;2.99;56.96;100801.28;4856877;29;8915;-78
2024/01/24 01:30:12;;;;;;;;;78.25;60.25;;;;;3.00;57.34;100782.28;4872209;29;8877;-77
2024/01/24 01:32:43;;;;;;;;;64.25;52.75;;;;;2.97;57.61;100789.13;4844041;29;8910;-78
2024/01/24 01:35:12;;;;;;;;;70.50;56.25;;;;;2.92;57.58;100801.06;4855537;29;8991;-78
2024/01/24 01:37:41;;;;;;;;;76.25;60.75;;;;;2.86;57.38;100798.28;4857469;29;9036;-77
2024/01/24 01:40:10;;;;;;;;;78.50;63.50;;;;;2.90;57.50;100800.16;4857584;29;8896;-77
2024/01/24 01:42:44;;;;;;;;;73.25;60.75;;;;;2.95;57.52;100801.19;4857473;29;8888;-80
2024/01/24 01:45:14;;;;;;;;;76.00;61.75;;;;;2.85;58.01;100802.63;4855593;29;8911;-78
2024/01/24 01:47:44;;;;;;;;;80.50;62.00;;;;;2.87;56.98;100803.53;4858232;29;8876;-79
2024/01/24 01:50:15;;;;;;;;;72.00;59.00;;;;;2.90;57.27;100805.34;4852694;29;8880;-76
2024/01/24 01:52:45;;;;;;;;;75.25;60.75;;;;;2.89;57.91;100798.41;4841445;29;9749;-79
2024/01/24 01:55:15;;;;;;;;;76.25;62.75;;;;;2.87;57.67;100795.75;4841528;29;8884;-81
2024/01/24 01:57:45;;;;;;;;;72.75;59.75;;;;;2.82;57.50;100802.50;4858052;29;9616;-79
2024/01/24 02:00:20;;;;;;;;;78.50;61.25;;;;;2.83;57.70;100804.28;4857733;29;8884;-76
2024/01/24 02:02:50;;;;;;;;;74.50;59.75;;;;;2.72;57.42;100797.88;4852942;29;8903;-79
2024/01/24 02:05:19;;;;;;;;;75.50;61.50;;;;;2.69;57.87;100788.25;4840489;29;8875;-76
2024/01/24 02:07:48;;;;;;;;;74.00;60.25;;;;;2.68;57.27;100781.31;4839343;29;8884;-79
2024/01/24 02:10:17;;;;;;;;;77.75;62.50;;;;;2.70;57.61;100777.06;4853992;29;8879;-78
2024/01/24 02:12:46;;;;;;;;;76.00;60.00;;;;;2.65;57.51;100780.34;4854844;29;8875;-76
2024/01/24 02:15:17;;;;;;;;;71.50;55.75;;;;;2.69;57.50;100779.59;4857325;29;8880;-78
2024/01/24 02:17:46;;;;;;;;;72.00;57.75;;;;;2.65;58.12;100783.81;4854491;29;8922;-79
2024/01/24 02:20:18;;;;;;;;;75.75;62.25;;;;;2.58;58.59;100792.22;4837898;29;8898;-77
2024/01/24 02:22:47;;;;;;;;;73.00;58.25;;;;;2.63;57.54;100793.25;4864350;29;8880;-78
2024/01/24 02:25:17;;;;;;;;;75.25;61.00;;;;;2.68;57.30;100798.63;4858712;29;8881;-76
2024/01/24 02:27:46;;;;;;;;;74.50;58.75;;;;;2.64;57.74;100788.94;4848543;29;8891;-78
2024/01/24 02:30:16;;;;;;;;;71.25;57.00;;;;;2.58;58.25;100792.22;4856155;29;8977;-78
2024/01/24 02:32:45;;;;;;;;;70.50;56.50;;;;;2.55;57.54;100780.03;4855146;29;8885;-80
2024/01/24 02:35:14;;;;;;;;;72.75;59.50;;;;;2.55;57.82;100780.03;4836417;29;9717;-77
2024/01/24 02:37:43;;;;;;;;;74.75;60.75;;;;;2.42;58.10;100788.28;4839458;29;8883;-77
2024/01/24 02:40:12;;;;;;;;;71.25;57.25;;;;;2.49;58.48;100787.66;4850391;29;8867;-80
2024/01/24 02:42:43;;;;;;;;;73.75;59.50;;;;;2.51;58.29;100783.38;4858800;29;8887;-81
2024/01/24 02:45:11;;;;;;;;;77.00;61.75;;;;;2.50;58.06;100773.81;4847186;29;8891;-78
2024/01/24 02:47:40;;;;;;;;;74.75;60.00;;;;;2.54;57.55;100760.13;4858703;29;8875;-78
2024/01/24 02:50:10;;;;;;;;;75.00;60.25;;;;;2.51;57.98;100761.75;4842487;29;8860;-78
2024/01/24 02:52:43;;;;;;;;;72.00;59.25;;;;;2.50;57.77;100753.06;4827688;29;8876;-77
2024/01/24 02:55:15;;;;;;;;;76.00;61.00;;;;;2.58;58.26;100755.88;4844353;29;8868;-77
2024/01/24 02:57:45;;;;;;;;;72.75;60.00;;;;;2.62;57.20;100752.59;4844447;29;8976;-75
2024/01/24 03:00:15;;;;;;;;;74.50;57.00;;;;;2.49;57.82;100748.72;4825760;29;9610;-77
2024/01/24 03:02:45;;;;;;;;;74.00;60.00;;;;;2.50;57.96;100745.28;4825729;29;8874;-76
2024/01/24 03:05:13;;;;;;;;;77.25;60.25;;;;;2.52;57.59;100746.19;4833987;29;8874;-78
2024/01/24 03:07:42;;;;;;;;;64.25;52.75;;;;;2.51;57.93;100748.78;4843854;29;8913;-76
2024/01/24 03:10:11;;;;;;;;;72.25;57.00;;;;;2.42;57.47;100750.22;4828814;29;8978;-77
2024/01/24 03:12:40;;;;;;;;;71.25;58.75;;;;;2.43;58.10;100764.09;4842729;29;8898;-78
2024/01/24 03:15:11;;;;;;;;;73.00;58.25;;;;;2.52;57.56;100758.31;4843639;29;8883;-79
2024/01/24 03:17:40;;;;;;;;;71.75;57.25;;;;;2.47;57.27;100760.75;4854740;29;8885;-78
2024/01/24 03:20:10;;;;;;;;;71.25;58.25;;;;;2.50;57.17;100763.44;4853412;29;8868;-79
2024/01/24 03:22:40;;;;;;;;;72.00;58.50;;;;;2.54;57.11;100756.63;4844109;29;8895;-77
2024/01/24 03:25:11;;;;;;;;;70.25;57.25;;;;;2.57;57.32;100754.16;4841806;29;8879;-79
2024/01/24 03:27:40;;;;;;;;;76.00;58.50;;;;;2.61;56.50;100759.47;4863901;29;8885;-77
2024/01/24 03:30:11;;;;;;;;;69.75;56.75;;;;;2.58;57.47;100756.78;4872873;29;8894;-79
2024/01/24 03:32:42;;;;;;;;;70.75;57.25;;;;;2.56;57.39;100757.56;4856653;29;8894;-76
2024/01/24 03:35:11;;;;;;;;;69.25;56.75;;;;;2.56;57.08;100754.97;4861386;29;8918;-77
2024/01/24 03:37:40;;;;;;;;;67.50;56.50;;;;;2.59;57.00;100758.53;4860057;29;8906;-76
2024/01/24 03:40:09;;;;;;;;;66.25;56.50;;;;;2.55;57.41;100759.28;4844779;29;8882;-77
2024/01/24 03:42:38;;;;;;;;;69.25;54.50;;;;;2.57;57.25;100756.75;4860031;29;8882;-78
2024/01/24 03:45:08;;;;;;;;;73.50;57.75;;;;;2.59;56.71;100758.53;4860028;29;8956;-76
2024/01/24 03:47:39;;;;;;;;;66.00;53.75;;;;;2.63;56.28;100753.44;4859415;29;8886;-78
2024/01/24 03:50:08;;;;;;;;;61.00;48.75;;;;;2.59;56.94;100749.88;4845452;29;8890;-75
2024/01/24 03:52:37;;;;;;;;;72.50;56.25;;;;;2.60;57.06;100754.25;4827033;29;8863;-78
2024/01/24 03:55:06;;;;;;;;;69.50;56.75;;;;;2.63;56.72;100756.91;4843579;29;8882;-76
2024/01/24 03:57:35;;;;;;;;;69.75;54.50;;;;;2.65;56.10;100760.44;4857042;29;8898;-77
2024/01/24 04:00:06;;;;;;;;;68.50;55.25;;;;;2.65;56.85;100763.03;4840265;29;8880;-76
2024/01/24 04:02:42;;;;;;;;;70.00;58.00;;;;;2.64;56.73;100766.50;4841710;29;8868;-78
2024/01/24 04:05:11;;;;;;;;;17.75;8.50;;;;;2.63;56.87;100772.50;4825132;29;8891;-78
2024/01/24 04:07:40;;;;;;;;;71.25;56.75;;;;;2.66;56.43;100771.72;4838358;29;8880;-78
2024/01/24 04:10:10;;;;;;;;;64.50;52.75;;;;;2.60;56.11;100769.81;4840489;29;8892;-78
2024/01/24 04:12:39;;;;;;;;;71.75;56.00;;;;;2.61;56.86;100772.44;4814704;29;8960;-78
2024/01/24 04:15:08;;;;;;;;;68.25;54.00;;;;;2.65;55.83;100772.56;4840357;29;8888;-77
2024/01/24 04:17:37;;;;;;;;;68.50;56.25;;;;;2.61;55.99;100771.56;4811614;29;8958;-78
2024/01/24 04:20:09;;;;;;;;;74.25;60.50;;;;;2.68;56.42;100767.47;4854189;29;8904;-78
2024/01/24 04:22:38;;;;;;;;;67.50;54.00;;;;;2.64;56.76;100771.69;4822319;29;8891;-78
2024/01/24 04:25:08;;;;;;;;;75.25;61.00;;;;;2.67;56.45;100765.69;4820393;29;8880;-79
2024/01/24 04:27:37;;;;;;;;;71.25;58.50;;;;;2.65;56.03;100757.84;4831200;29;8866;-77
2024/01/24 04:30:08;;;;;;;;;69.00;54.75;;;;;2.61;56.02;100762.06;4856637;29;8898;-79
2024/01/24 04:32:37;;;;;;;;;68.00;54.25;;;;;2.66;56.27;100764.81;4856151;29;8905;-79
2024/01/24 04:35:08;;;;;;;;;66.75;55.00;;;;;2.63;56.24;100762.13;4856997;29;8902;-80
2024/01/24 04:37:37;;;;;;;;;67.50;57.00;;;;;2.61;56.30;100759.47;4842161;29;8872;-80
2024/01/24 04:40:07;;;;;;;;;68.25;56.00;;;;;2.59;56.40;100757.66;4805319;29;8928;-80
2024/01/24 04:42:36;;;;;;;;;68.00;57.00;;;;;2.54;56.90;100748.84;4822915;29;8881;-76
2024/01/24 04:45:07;;;;;;;;;61.50;51.75;;;;;2.48;57.29;100733.97;4821355;29;8886;-77
2024/01/24 04:47:38;;;;;;;;;75.25;59.25;;;;;2.52;56.20;100741.00;4856656;29;9672;-78
2024/01/24 04:50:09;;;;;;;;;66.50;53.50;;;;;2.48;57.15;100746.06;4857491;29;8884;-79
2024/01/24 04:52:39;;;;;;;;;60.50;47.75;;;;;2.41;57.60;100743.28;4851005;29;8894;-79
2024/01/24 04:55:11;;;;;;;;;63.75;54.00;;;;;2.43;57.27;100738.16;4840624;29;9774;-77
2024/01/24 04:57:41;;;;;;;;;64.67;54.67;;;;;2.52;57.22;100725.44;4837761;29;8911;-78
2024/01/24 05:00:11;;;;;;;;;60.75;52.25;;;;;2.39;56.88;100716.41;4823619;29;10018;-78
2024/01/24 05:02:41;;;;;;;;;61.75;51.00;;;;;2.38;57.76;100713.75;4819455;29;9649;-79
2024/01/24 05:05:12;;;;;;;;;91.50;69.75;;;;;2.49;57.68;100721.88;4836217;29;10025;-78
2024/01/24 05:07:41;;;;;;;;;66.25;53.50;;;;;2.46;57.61;100709.69;4836650;29;9771;-78
2024/01/24 05:10:10;;;;;;;;;106.75;95.75;;;;;2.47;57.74;100710.59;4827564;29;8883;-78
2024/01/24 05:12:39;;;;;;;;;64.25;54.75;;;;;2.45;57.46;100707.03;4843644;29;10002;-78
2024/01/24 05:15:09;;;;;;;;;72.75;56.25;;;;;2.45;57.13;100705.34;4860205;29;8982;-79
2024/01/24 05:17:39;;;;;;;;;68.75;57.25;;;;;2.35;57.53;100711.06;4839456;29;8894;-78
2024/01/24 05:20:11;;;;;;;;;63.50;52.50;;;;;2.29;57.84;100708.28;4854792;29;9717;-79
2024/01/24 05:22:40;;;;;;;;;66.50;52.25;;;;;2.32;58.06;100704.06;4825468;29;8876;-77
2024/01/24 05:25:09;;;;;;;;;68.75;57.00;;;;;2.39;57.92;100703.44;4855072;29;9008;-80
2024/01/24 05:27:38;;;;;;;;;67.50;55.25;;;;;2.36;57.71;100707.66;4840364;29;8879;-78
2024/01/24 05:30:08;;;;;;;;;69.00;56.75;;;;;2.50;57.44;100711.53;4851380;29;8895;-75
2024/01/24 05:32:54;;;;;;;;;69.00;56.75;;;;;2.50;57.36;100710.66;4865883;29;8891;-78
2024/01/24 05:35:24;;;;;;;;;69.75;57.00;;;;;2.53;57.08;100709.03;4839939;29;8883;-76
2024/01/24 05:37:53;;;;;;;;;69.25;56.00;;;;;2.55;57.53;100709.97;4839687;29;8879;-78
2024/01/24 05:40:22;;;;;;;;;63.75;51.50;;;;;2.57;56.86;100704.81;4838494;29;8884;-75
2024/01/24 05:42:51;;;;;;;;;63.00;53.00;;;;;2.59;56.73;100710.94;4837463;29;8893;-78
2024/01/24 05:45:21;;;;;;;;;64.25;51.50;;;;;2.57;57.25;100718.69;4839932;29;8891;-79
2024/01/24 05:47:50;;;;;;;;;70.25;55.50;;;;;2.64;56.47;100717.16;4843467;29;8916;-77
2024/01/24 05:50:19;;;;;;;;;66.75;50.75;;;;;2.58;56.64;100717.84;4810884;29;8906;-80
2024/01/24 05:52:50;;;;;;;;;67.50;54.00;;;;;2.65;56.84;100710.25;4816426;29;8924;-77
2024/01/24 05:55:19;;;;;;;;;76.25;61.50;;;;;2.67;55.98;100713.78;4824921;29;8867;-78
2024/01/24 05:57:48;;;;;;;;;69.00;56.00;;;;;2.61;56.62;100712.75;4829700;29;9005;-77
2024/01/24 06:00:17;;;;;;;;;71.75;57.25;;;;;2.61;56.37;100711.88;4861797;29;8970;-79
2024/01/24 06:02:47;;;;;;;;;75.25;56.50;;;;;2.64;55.91;100709.38;4865256;29;8966;-79
2024/01/24 06:05:16;;;;;;;;;65.25;52.25;;;;;2.67;56.70;100704.25;4820359;29;8956;-79
2024/01/24 06:07:46;;;;;;;;;63.25;51.50;;;;;2.69;55.66;100714.69;4818945;29;8915;-78
2024/01/24 06:10:17;;;;;;;;;62.25;51.75;;;;;2.71;56.29;100720.81;4817683;29;8922;-78
2024/01/24 06:12:46;;;;;;;;;67.00;54.75;;;;;2.72;56.42;100717.38;4803917;29;8907;-79
2024/01/24 06:15:15;;;;;;;;;67.50;56.00;;;;;2.74;55.73;100718.31;4764279;29;8900;-77
2024/01/24 06:17:44;;;;;;;;;62.25;52.00;;;;;2.77;55.39;100716.69;4784268;29;8888;-78
2024/01/24 06:20:14;;;;;;;;;67.25;53.25;;;;;2.80;55.32;100723.69;4754421;29;8881;-79
2024/01/24 06:22:45;;;;;;;;;68.50;55.25;;;;;2.80;55.67;100728.88;4783549;29;8928;-79
2024/01/24 06:25:16;;;;;;;;;65.75;53.75;;;;;2.86;55.35;100725.59;4782337;29;8954;-80
2024/01/24 06:27:45;;;;;;;;;64.50;50.25;;;;;2.86;55.73;100722.97;4738811;29;8911;-78
2024/01/24 06:30:34;;;;;;;;;67.50;55.25;;;;;2.94;55.34;100731.88;4727102;30;8894;-78
2024/01/24 06:33:03;;;;;;;;;69.25;56.25;;;;;2.93;55.94;100733.59;4746452;30;8940;-77
2024/01/24 06:35:32;;;;;;;;;61.00;48.25;;;;;3.00;55.05;100739.88;4747557;30;8906;-78
2024/01/24 06:38:02;;;;;;;;;73.00;55.50;;;;;3.09;54.96;100737.53;4762604;30;8909;-79
2024/01/24 06:40:32;;;;;;;;;67.75;52.00;;;;;3.17;55.36;100730.81;4745948;30;8922;-79
2024/01/24 06:43:01;;;;;;;;;59.00;48.00;;;;;3.22;55.16;100730.94;4746838;30;8909;-80
2024/01/24 06:45:30;;;;;;;;;69.00;54.50;;;;;3.27;54.81;100741.47;4743284;30;9099;-78
2024/01/24 06:47:59;;;;;;;;;70.00;57.25;;;;;3.35;54.43;100742.56;4735914;30;8925;-78
2024/01/24 06:50:29;;;;;;;;;62.00;52.75;;;;;3.47;54.33;100737.75;4749604;30;8937;-78
2024/01/24 06:52:58;;;;;;;;;73.75;60.50;;;;;3.50;54.48;100739.56;4764218;29;8907;-78
2024/01/24 06:55:27;;;;;;;;;71.25;57.25;;;;;3.58;54.17;100749.31;4776485;30;8904;-80
2024/01/24 06:57:58;;;;;;;;;68.00;55.50;;;;;3.63;54.13;100731.25;4767517;30;8910;-78
2024/01/24 07:00:27;;;;;;;;;76.50;59.25;;;;;3.69;54.20;100746.13;4777507;30;8915;-79
2024/01/24 07:02:57;;;;;;;;;69.00;57.25;;;;;3.79;54.31;100740.34;4815880;29;8891;-78
2024/01/24 07:05:25;;;;;;;;;70.50;56.50;;;;;3.84;54.15;100743.03;4807876;29;9026;-77
2024/01/24 07:07:54;;;;;;;;;77.00;61.00;;;;;3.92;54.07;100737.22;4849612;29;8940;-77
2024/01/24 07:10:23;;;;;;;;;72.75;58.50;;;;;4.02;54.01;100735.72;4820600;29;8938;-79
2024/01/24 07:12:52;;;;;;;;;77.00;60.50;;;;;4.20;53.64;100744.81;4834986;29;8908;-78
2024/01/24 07:15:23;;;;;;;;;80.00;62.00;;;;;4.23;53.85;100748.38;4817353;29;8924;-79
2024/01/24 07:17:52;;;;;;;;;75.67;60.00;;;;;4.33;53.29;100741.66;4818870;29;8876;-76
2024/01/24 07:20:21;;;;;;;;;85.00;64.50;;;;;4.41;52.92;100734.91;4817505;29;8884;-79
2024/01/24 07:22:51;;;;;;;;;88.67;70.33;;;;;4.51;52.62;100736.88;4780754;29;8899;-77
2024/01/24 07:25:21;;;;;;;;;90.67;70.67;;;;;4.64;52.64;100735.44;4780834;29;9219;-77
2024/01/24 07:27:50;;;;;;;;;90.00;70.67;;;;;4.63;52.48;100733.66;4754120;29;9306;-78
2024/01/24 07:30:19;;;;;;;;;80.50;63.75;;;;;4.60;51.79;100733.59;4767122;30;10008;-79
2024/01/24 07:32:52;;;;;;;;;83.50;67.00;;;;;4.78;51.96;100729.66;4767091;30;8898;-76
2024/01/24 07:35:21;;;;;;;;;87.50;68.25;;;;;4.82;51.83;100723.66;4784970;29;8900;-76
2024/01/24 07:37:50;;;;;;;;;93.00;70.33;;;;;4.91;51.71;100721.25;4780812;29;9634;-80
2024/01/24 07:40:19;;;;;;;;;16.67;9.00;;;;;5.03;51.46;100718.03;4787043;29;9085;-79
2024/01/24 07:42:49;;;;;;;;;82.00;66.33;;;;;5.15;50.97;100710.44;4791054;29;9251;-79
2024/01/24 07:45:19;;;;;;;;;92.67;75.00;;;;;5.21;50.59;100715.78;4783556;29;9080;-79
2024/01/24 07:47:51;;;;;;;;;85.67;69.33;;;;;5.26;50.98;100728.91;4768148;30;9258;-78
2024/01/24 07:50:20;;;;;;;;;88.00;70.33;;;;;5.36;51.27;100715.25;4767814;30;9208;-78
2024/01/24 07:52:50;;;;;;;;;95.00;78.50;;;;;5.46;50.66;100718.91;4780968;29;9403;-79
2024/01/24 07:55:19;;;;;;;;;93.75;79.50;;;;;5.45;49.92;100715.44;4781080;29;10591;-78
2024/01/24 07:58:00;;;;;;;;;93.75;75.50;;;;;5.45;49.97;100705.00;4780438;29;9779;-79
2024/01/24 08:00:29;;;;;;;;;97.75;84.75;;;;;5.56;49.96;100712.13;4792470;29;9841;-80
2024/01/24 08:03:00;;;;;;;;;97.75;81.00;;;;;5.62;49.43;100702.66;4772017;29;10330;-78
2024/01/24 08:05:30;;;;;;;;;96.75;85.50;;;;;5.64;49.82;100703.59;4786669;29;10242;-77
2024/01/24 08:07:59;;;;;;;;;97.75;84.25;;;;;5.72;49.25;100704.59;4796230;29;10155;-78
2024/01/24 08:10:28;;;;;;;;;88.00;73.50;;;;;5.79;49.76;100707.31;4855310;29;10342;-78
2024/01/24 08:12:58;;;;;;;;;93.00;77.25;;;;;5.96;49.38;100702.38;4838916;29;9840;-79
2024/01/24 08:15:27;;;;;;;;;87.75;66.50;;;;;5.95;49.18;100700.66;4838364;29;9643;-77
2024/01/24 08:17:56;;;;;;;;;89.00;72.00;;;;;6.09;48.99;100692.16;4845193;29;9529;-78
2024/01/24 08:20:27;;;;;;;;;92.33;73.33;;;;;6.17;48.87;100678.34;4842833;29;9815;-80
2024/01/24 08:22:56;;;;;;;;;92.33;74.00;;;;;6.25;48.14;100675.00;4858289;29;9538;-79
2024/01/24 08:25:26;;;;;;;;;88.33;68.67;;;;;6.30;48.17;100667.22;4829644;29;9394;-80
2024/01/24 08:27:55;;;;;;;;;86.00;66.50;;;;;6.40;47.90;100681.28;4839684;29;9331;-80
2024/01/24 08:30:24;;;;;;;;;83.00;68.00;;;;;6.48;48.39;100674.47;4830084;29;9074;-82
2024/01/24 08:32:54;;;;;;;;;78.25;62.25;;;;;6.56;48.41;100671.97;4849786;29;8960;-79
2024/01/24 08:35:23;;;;;;;;;80.00;63.25;;;;;6.56;47.67;100666.72;4837557;29;8909;-82
2024/01/24 08:37:53;;;;;;;;;73.75;58.00;;;;;6.62;47.23;100662.44;4837902;29;8880;-80
2024/01/24 08:40:22;;;;;;;;;70.25;57.50;;;;;6.72;47.15;100676.53;4839194;29;8900;-79
2024/01/24 08:42:51;;;;;;;;;71.50;57.50;;;;;6.73;47.12;100693.09;4839314;29;8946;-80
2024/01/24 08:45:20;;;;;;;;;69.75;56.25;;;;;6.78;46.96;100694.91;4780405;29;8937;-80
2024/01/24 08:47:50;;;;;;;;;70.00;56.25;;;;;6.90;46.59;100689.84;4755120;29;8891;-79
2024/01/24 08:50:19;;;;;;;;;75.75;59.00;;;;;6.88;46.70;100699.38;4769228;29;8876;-78
2024/01/24 08:52:49;;;;;;;;;71.25;57.50;;;;;6.97;46.27;100696.03;4783469;29;8941;-81
2024/01/24 08:55:20;;;;;;;;;69.50;57.00;;;;;7.10;46.62;100686.63;4783512;29;8887;-82
2024/01/24 08:57:50;;;;;;;;;72.00;57.75;;;;;7.22;46.28;100678.03;4783554;29;8907;-76
2024/01/24 09:00:19;;;;;;;;;65.25;54.50;;;;;7.34;45.36;100666.81;4785934;29;8883;-80
2024/01/24 09:02:48;;;;;;;;;62.75;51.75;;;;;7.45;45.45;100667.81;4782093;29;8934;-81
2024/01/24 09:05:20;;;;;;;;;66.50;52.00;;;;;7.42;45.40;100668.66;4839257;29;8892;-80
2024/01/24 09:07:50;;;;;;;;;64.50;52.00;;;;;7.47;45.92;100660.84;4836266;29;9028;-79
2024/01/24 09:10:21;;;;;;;;;68.50;54.00;;;;;7.66;46.07;100646.19;4834605;29;8871;-79
2024/01/24 09:12:51;;;;;;;;;74.50;55.25;;;;;7.73;45.92;100640.16;4833094;29;8906;-85
2024/01/24 09:15:20;;;;;;;;;64.25;51.75;;;;;7.79;45.23;100640.19;4835148;29;9688;-85
2024/01/24 09:17:50;;;;;;;;;59.75;48.50;;;;;7.63;45.10;100633.97;4828986;29;8868;-80
2024/01/24 09:20:18;;;;;;;;;55.00;44.00;;;;;7.66;44.85;100623.53;4827652;29;8898;-82
2024/01/24 09:22:50;;;;;;;;;53.25;44.00;;;;;7.73;45.04;100611.34;4830584;29;9024;-81
2024/01/24 09:25:21;;;;;;;;;44.50;40.25;;;;;7.70;43.23;100605.22;4874664;29;8886;-81
2024/01/24 09:27:51;;;;;;;;;53.00;46.00;;;;;7.81;44.06;100590.47;4866714;29;8890;-80
2024/01/24 09:30:23;;;;;;;;;44.00;39.40;;;;;7.68;43.98;100597.34;4820940;29;8912;-83
2024/01/24 09:33:13;;;;;;;;;39.60;36.40;;;;;7.91;43.00;100588.78;4826184;29;8857;-80
2024/01/24 09:35:43;;;;;;;;;40.40;36.60;;;;;7.92;43.34;100580.94;4797705;29;9688;-84
2024/01/24 09:38:13;;;;;;;;;43.40;36.20;;;;;8.07;43.32;100591.53;4807957;29;9067;-82
2024/01/24 09:41:13;;;;;;;;;39.00;34.80;;;;;8.48;44.14;100573.41;4774174;29;10022;-80
2024/01/24 09:43:44;;;;;;;;;51.25;41.75;;;;;8.60;44.28;100574.34;4802122;29;8909;-81
2024/01/24 09:46:16;;;;;;;;;49.75;42.75;;;;;8.56;42.71;100561.25;4746979;29;8912;-81
2024/01/24 09:48:48;;;;;;;;;49.75;40.75;;;;;8.45;43.44;100555.94;4779600;29;8905;-80
2024/01/24 09:51:18;;;;;;;;;42.20;38.60;;;;;8.41;42.86;100548.94;4793867;29;8891;-85
2024/01/24 09:53:50;;;;;;;;;43.20;37.40;;;;;8.65;42.78;100529.81;4823805;29;8890;-79
2024/01/24 09:56:22;;;;;;;;;45.80;39.60;;;;;8.51;41.94;100532.38;4810073;29;8907;-80
2024/01/24 09:58:52;;;;;;;;;37.40;35.40;;;;;8.43;42.30;100521.88;4771440;29;8898;-80
2024/01/24 10:01:23;;;;;;;;;49.40;39.20;;;;;8.57;42.65;100524.56;4823264;29;8896;-82
2024/01/24 10:03:55;;;;;;;;;40.20;35.60;;;;;8.32;41.95;100518.34;4820835;29;8898;-84
2024/01/24 10:06:25;;;;;;;;;34.40;33.40;;;;;8.12;42.89;100517.34;4801813;29;9789;-83
2024/01/24 10:08:54;;;;;;;;;39.20;36.80;;;;;8.20;43.07;100497.31;4811678;29;8893;-80
2024/01/24 10:11:25;;;;;;;;;36.60;34.60;;;;;7.91;41.90;100500.69;4839680;29;8876;-80
2024/01/24 10:13:57;;;;;;;;;32.60;32.60;;;;;7.92;42.08;100486.69;4844963;29;8880;-82
2024/01/24 10:16:27;;;;;;;;;35.40;32.40;;;;;8.27;43.17;100499.09;4847463;29;8921;-80
2024/01/24 10:18:57;;;;;;;;;37.00;35.20;;;;;8.30;43.10;100499.13;4850723;29;8872;-79
2024/01/24 10:21:27;;;;;;;;;37.40;35.80;;;;;8.38;41.93;100493.91;4818633;29;8959;-81
2024/01/24 10:23:59;;;;;;;;;42.00;37.60;;;;;8.49;43.63;100483.47;4844810;29;8955;-82
2024/01/24 10:26:30;;;;;;;;;43.00;36.00;;;;;8.54;42.40;100484.38;4852792;29;9870;-80
2024/01/24 10:29:00;;;;;;;;;41.80;36.60;;;;;8.49;42.57;100471.22;4838084;29;8926;-83
2024/01/24 10:31:31;;;;;;;;;35.80;35.60;;;;;7.92;42.50;100476.22;4821218;29;8886;-82
2024/01/24 10:34:01;;;;;;;;;37.20;34.20;;;;;7.79;43.15;100469.19;4824199;29;8980;-83
2024/01/24 10:36:51;;;;;;;;;39.40;35.40;;;;;8.22;42.52;100445.81;4778532;29;8921;-82
2024/01/24 10:39:22;;;;;;;;;37.40;35.40;;;;;7.89;43.00;100434.31;4766809;30;8919;-82
2024/01/24 10:41:55;;;;;;;;;45.00;39.60;;;;;7.96;43.13;100428.25;4786021;29;8912;-84
2024/01/24 10:44:26;;;;;;;;;45.40;39.80;;;;;7.70;42.85;100417.66;4767306;30;8942;-85
2024/01/24 10:46:58;;;;;;;;;39.00;35.80;;;;;7.95;43.61;100433.47;4768723;29;8881;-80
2024/01/24 10:49:29;;;;;;;;;49.50;41.50;;;;;7.99;43.72;100445.72;4768977;30;8904;-83
2024/01/24 10:51:59;;;;;;;;;50.00;42.75;;;;;8.21;44.29;100447.56;4769326;29;8913;-83
2024/01/24 10:54:32;;;;;;;;;48.00;41.50;;;;;8.23;42.98;100456.28;4784224;29;8954;-83
2024/01/24 10:57:06;;;;;;;;;48.00;41.75;;;;;8.50;43.85;100436.31;4796234;29;8923;-80
2024/01/24 10:59:45;;;;;;;;;48.80;39.00;;;;;8.20;43.51;100419.59;4811159;29;9018;-81
2024/01/24 11:02:14;;;;;;;;;42.00;37.40;;;;;8.34;43.35;100403.94;4811072;29;8906;-80
2024/01/24 11:04:45;;;;;;;;;42.25;38.50;;;;;8.10;43.14;100399.50;4791973;29;8897;-83
2024/01/24 11:07:21;;;;;;;;;49.50;43.00;;;;;8.14;43.23;100395.16;4770831;29;9640;-79
2024/01/24 11:10:01;;;;;;;;;51.00;42.75;;;;;8.23;43.02;100393.44;4785736;29;8893;-80
2024/01/24 11:12:33;;;;;;;;;49.75;42.25;;;;;7.91;43.03;100400.31;4804428;29;9014;-81
2024/01/24 11:15:05;;;;;;;;;47.50;40.50;;;;;8.26;43.96;100390.81;4795251;29;9006;-81
2024/01/24 11:17:35;;;;;;;;;47.75;41.00;;;;;8.30;43.24;100380.34;4814796;29;8903;-79
2024/01/24 11:20:07;;;;;;;;;48.75;40.00;;;;;8.42;43.05;100383.00;4826956;29;8888;-81
2024/01/24 11:22:36;;;;;;;;;42.20;38.00;;;;;7.86;43.35;100380.22;4823942;29;8991;-74
2024/01/24 11:25:07;;;;;;;;;43.80;38.00;;;;;7.79;43.92;100373.22;4837146;29;8899;-78
2024/01/24 11:27:41;;;;;;;;;41.20;37.80;;;;;7.78;43.07;100373.19;4841066;29;9030;-81
2024/01/24 11:30:36;;;;;;;;;45.80;38.20;;;;;7.90;43.20;100383.72;4809613;29;8973;-79
2024/01/24 11:33:05;;;;;;;;;37.80;36.20;;;;;7.74;43.24;100382.81;4842703;29;8941;-79
2024/01/24 11:35:37;;;;;;;;;35.60;31.40;;;;;7.69;43.08;100374.06;4857930;29;8909;-80
2024/01/24 11:38:08;;;;;;;;;29.60;28.20;;;;;7.64;42.96;100366.16;4827899;29;8898;-80